createdAt,value
2022-10-24T00:01:43.092Z,99999.25
2022-10-24T00:04:10.760Z,100026.63
2022-10-24T00:06:40.882Z,99997.59
2022-10-24T00:09:09.133Z,100001.97
2022-10-24T00:11:38.598Z,100003.84
2022-10-24T00:14:06.411Z,100007.41
2022-10-24T00:16:35.833Z,100010.97
2022-10-24T00:19:04.126Z,99999.53
2022-10-24T00:21:32.405Z,99995.19
2022-10-24T00:24:00.612Z,100014.56
2022-10-24T00:26:30.147Z,100008.44
2022-10-24T00:31:29.339Z,99998.78
2022-10-24T00:34:08.411Z,99994.38
2022-10-24T00:36:36.729Z,99988.28
2022-10-24T00:39:04.672Z,99994.50
2022-10-24T00:41:39.438Z,100006.81
2022-10-24T00:44:20.424Z,100026.19
2022-10-24T00:47:19.980Z,100032.22
2022-10-24T00:50:01.096Z,100016.50
2022-10-24T00:52:34.918Z,100029.63
2022-10-24T00:55:05.499Z,100032.31
2022-10-24T00:57:46.439Z,100027.97
2022-10-24T01:00:22.335Z,100028.91
2022-10-24T01:02:50.324Z,100042.13
2022-10-24T01:05:21.003Z,100051.84
2022-10-24T01:08:09.785Z,100065.00
2022-10-24T01:10:58.666Z,100050.00
2022-10-24T01:13:32.791Z,100043.84
2022-10-24T01:16:24.589Z,100030.66
2022-10-24T01:19:25.416Z,100035.97
2022-10-24T01:22:20.127Z,100013.97
2022-10-24T01:25:13.854Z,100014.88
2022-10-24T01:27:54.257Z,100021.88
2022-10-24T01:30:22.127Z,100020.97
2022-10-24T01:33:16.114Z,100008.69
2022-10-24T01:35:48.379Z,100021.91
2022-10-24T01:38:36.851Z,100021.88
2022-10-24T01:41:13.641Z,100022.78
2022-10-24T01:43:48.686Z,100010.50
2022-10-24T01:46:24.683Z,100052.78
2022-10-24T01:49:00.954Z,100050.13
2022-10-24T01:51:32.449Z,100041.31
2022-10-24T01:54:01.929Z,100040.47
2022-10-24T01:56:29.926Z,100035.16
2022-10-24T01:59:07.761Z,100044.03
2022-10-24T02:01:36.545Z,100051.09
2022-10-24T02:04:09.072Z,100059.91
2022-10-24T02:06:41.152Z,100069.56
2022-10-24T02:09:17.838Z,100065.13
2022-10-24T02:11:47.471Z,100074.78
2022-10-24T02:14:25.324Z,100103.88
2022-10-24T02:16:53.536Z,100090.59
2022-10-24T02:19:21.998Z,100087.91
2022-10-24T02:22:03.400Z,100085.28
2022-10-24T02:24:42.684Z,100077.38
2022-10-24T02:27:21.950Z,100083.53
2022-10-24T02:30:11.577Z,100073.84
2022-10-24T02:32:44.253Z,100065.91
2022-10-24T02:35:15.697Z,100062.38
2022-10-24T02:37:50.570Z,100064.16
2022-10-24T02:40:21.424Z,100078.28
2022-10-24T02:42:54.258Z,100091.50
2022-10-24T02:45:23.457Z,100087.97
2022-10-24T02:48:03.476Z,100094.16
2022-10-24T02:50:32.904Z,100084.41
2022-10-24T02:53:00.969Z,100086.19
2022-10-24T02:55:28.927Z,100091.50
2022-10-24T02:57:56.842Z,100092.38
2022-10-24T03:00:24.697Z,100080.88
2022-10-24T03:02:52.587Z,100087.09
2022-10-24T03:05:20.469Z,100091.56
2022-10-24T03:07:48.361Z,100098.59
2022-10-24T03:10:16.341Z,100095.94
2022-10-24T03:12:44.816Z,100103.88
2022-10-24T03:15:13.025Z,100114.44
2022-10-24T03:17:41.357Z,100114.44
2022-10-24T03:20:09.868Z,100122.41
2022-10-24T03:22:38.242Z,100138.25
2022-10-24T03:25:07.140Z,100134.69
2022-10-24T03:27:35.339Z,100139.13
2022-10-24T03:30:04.581Z,100140.88
2022-10-24T03:32:34.503Z,100141.78
2022-10-24T03:35:02.825Z,100138.22
2022-10-24T03:37:31.226Z,100141.78
2022-10-24T03:39:59.034Z,100132.03
2022-10-24T03:42:27.812Z,100147.06
2022-10-24T03:44:55.774Z,100141.75
2022-10-24T03:47:23.714Z,100140.00
2022-10-24T03:49:51.915Z,100141.78
2022-10-24T03:52:19.690Z,100137.34
2022-10-24T03:54:47.575Z,100139.09
2022-10-24T03:57:15.456Z,100133.78
2022-10-24T03:59:43.789Z,100132.00
2022-10-24T04:02:13.287Z,100131.13
2022-10-24T04:04:42.310Z,100137.34
2022-10-24T04:07:10.111Z,100150.59
2022-10-24T04:09:38.066Z,100144.38
2022-10-24T04:12:06.086Z,100148.84
2022-10-24T04:14:34.359Z,100143.50
2022-10-24T04:17:02.517Z,100147.94
2022-10-24T04:19:30.666Z,100140.88
2022-10-24T04:21:59.151Z,100143.50
2022-10-24T04:24:27.096Z,100145.31
2022-10-24T04:26:55.293Z,100144.44
2022-10-24T04:29:23.094Z,100140.94
2022-10-24T04:31:50.884Z,100140.91
2022-10-24T04:34:19.124Z,100138.25
2022-10-24T04:36:46.862Z,100139.13
2022-10-24T04:39:15.199Z,100140.88
2022-10-24T04:41:43.347Z,100139.13
2022-10-24T04:44:11.716Z,100139.09
2022-10-24T04:46:39.914Z,100133.78
2022-10-24T04:49:08.079Z,100143.53
2022-10-24T04:51:36.224Z,100131.13
2022-10-24T04:54:04.492Z,100123.19
2022-10-24T04:56:32.649Z,100123.25
2022-10-24T04:59:00.814Z,100119.69
2022-10-24T05:01:29.183Z,100122.34
2022-10-24T05:03:57.024Z,100129.47
2022-10-24T05:06:25.309Z,100118.88
2022-10-24T05:08:53.106Z,100118.88
2022-10-24T05:11:21.294Z,100121.56
2022-10-24T05:13:49.439Z,100134.81
2022-10-24T05:16:17.640Z,100127.75
2022-10-24T05:18:45.688Z,100130.44
2022-10-24T05:21:13.796Z,100136.59
2022-10-24T05:23:41.786Z,100148.97
2022-10-24T05:26:10.072Z,100143.66
2022-10-24T05:28:38.221Z,100162.19
2022-10-24T05:31:06.353Z,100163.09
2022-10-24T05:33:34.393Z,100167.47
2022-10-24T05:36:02.776Z,100181.59
2022-10-24T05:38:30.842Z,100187.75
2022-10-24T05:40:59.008Z,100200.09
2022-10-24T05:43:27.081Z,100206.25
2022-10-24T05:45:55.218Z,100198.28
2022-10-24T05:48:48.967Z,100205.34
2022-10-24T05:51:17.485Z,100192.00
2022-10-24T05:53:45.342Z,100193.75
2022-10-24T05:56:13.529Z,100188.44
2022-10-24T05:58:41.216Z,100195.50
2022-10-24T06:01:09.590Z,100199.91
2022-10-24T06:03:37.773Z,100197.25
2022-10-24T06:06:10.123Z,100199.06
2022-10-24T06:08:38.758Z,100199.94
2022-10-24T06:11:10.882Z,100185.84
2022-10-24T06:13:39.687Z,100189.41
2022-10-24T06:16:09.472Z,100185.03
2022-10-24T06:18:38.894Z,100188.59
2022-10-24T06:21:09.173Z,100189.47
2022-10-24T06:23:37.424Z,100195.63
2022-10-24T06:26:12.038Z,100223.78
2022-10-24T06:28:40.674Z,100240.47
2022-10-24T06:31:09.346Z,100243.88
2022-10-24T06:33:37.699Z,100255.25
2022-10-24T06:36:09.422Z,100247.28
2022-10-24T06:38:37.609Z,100238.38
2022-10-24T06:41:11.128Z,100227.78
2022-10-24T06:43:39.582Z,100242.72
2022-10-24T06:46:09.990Z,100242.66
2022-10-24T06:48:38.387Z,100248.75
2022-10-24T06:51:06.574Z,100258.31
2022-10-24T06:53:35.250Z,100258.16
2022-10-24T06:56:05.332Z,100246.56
2022-10-24T06:58:36.026Z,100257.78
2022-10-24T07:01:20.763Z,100260.38
2022-10-24T07:03:49.476Z,100262.03
2022-10-24T07:08:57.163Z,100241.50
2022-10-24T07:11:25.886Z,100230.84
2022-10-24T07:13:56.668Z,100231.72
2022-10-24T07:16:28.477Z,100242.38
2022-10-24T07:18:56.898Z,100240.59
2022-10-24T07:21:31.089Z,100236.19
2022-10-24T07:24:00.284Z,100245.09
2022-10-24T07:26:30.067Z,100248.56
2022-10-24T07:31:36.075Z,100245.00
2022-10-24T07:34:07.570Z,100248.56
2022-10-24T07:36:40.192Z,100253.88
2022-10-24T07:39:12.063Z,100255.59
2022-10-24T07:41:42.001Z,100254.66
2022-10-24T07:44:11.212Z,100254.66
2022-10-24T07:46:42.516Z,100243.09
2022-10-24T07:49:10.899Z,100253.72
2022-10-24T07:51:40.428Z,100258.13
2022-10-24T07:54:08.711Z,100267.84
2022-10-24T07:56:37.199Z,100258.06
2022-10-24T07:59:09.456Z,100263.31
2022-10-24T08:01:41.968Z,100265.97
2022-10-24T08:04:11.282Z,100264.13
2022-10-24T08:06:40.840Z,100261.50
2022-10-24T08:09:09.425Z,100267.59
2022-10-24T08:11:37.661Z,100260.53
2022-10-24T08:14:06.003Z,100258.72
2022-10-24T08:16:34.233Z,100252.41
2022-10-24T08:19:02.617Z,100257.66
2022-10-24T08:21:31.753Z,100254.03
2022-10-24T08:24:00.546Z,100256.63
2022-10-24T08:26:29.972Z,100247.63
2022-10-24T08:29:11.020Z,100248.53
2022-10-24T08:31:56.412Z,100240.44
2022-10-24T08:34:35.796Z,100244.81
2022-10-24T08:37:06.270Z,100238.53
2022-10-24T08:39:39.517Z,100239.41
2022-10-24T08:42:14.738Z,100230.47
2022-10-24T08:44:55.547Z,100234.00
2022-10-24T08:48:24.521Z,100225.09
2022-10-24T08:51:11.026Z,100225.00
2022-10-24T08:53:44.927Z,100220.41
2022-10-24T08:56:13.751Z,100212.38
2022-10-24T08:58:57.019Z,100214.03
2022-10-24T09:02:08.018Z,100216.63
2022-10-24T09:05:12.017Z,100208.63
2022-10-24T09:07:40.988Z,100212.03
2022-10-24T09:10:22.869Z,100196.94
2022-10-24T09:12:52.606Z,100218.97
2022-10-24T09:15:31.292Z,100231.03
2022-10-24T09:18:00.331Z,100243.88
2022-10-24T09:20:33.528Z,100226.56
2022-10-24T09:23:05.475Z,100214.94
2022-10-24T09:25:36.554Z,100197.53
2022-10-24T09:28:06.892Z,100188.06
2022-10-24T09:30:37.576Z,100192.66
2022-10-24T09:33:26.107Z,100196.94
2022-10-24T09:36:00.718Z,100193.25
2022-10-24T09:38:37.786Z,100194.16
2022-10-24T09:41:24.854Z,100213.47
2022-10-24T09:43:59.228Z,100209.81
2022-10-24T09:46:45.221Z,100199.38
2022-10-24T09:49:17.171Z,100197.72
2022-10-24T09:52:15.748Z,100199.38
2022-10-24T09:54:46.535Z,100208.31
2022-10-24T09:57:18.299Z,100197.72
2022-10-24T10:00:00.317Z,100205.63
2022-10-24T10:02:37.745Z,100211.81
2022-10-24T10:05:06.896Z,100201.34
2022-10-24T10:07:37.481Z,100201.44
2022-10-24T10:10:35.131Z,100204.28
2022-10-24T10:13:15.397Z,100213.25
2022-10-24T10:15:47.957Z,100213.19
2022-10-24T10:18:42.734Z,100231.53
2022-10-24T10:21:19.347Z,100228.78
2022-10-24T10:23:56.880Z,100238.19
2022-10-24T10:26:28.739Z,100237.97
2022-10-24T10:29:21.020Z,100240.47
2022-10-24T10:32:18.031Z,100256.91
2022-10-24T10:35:04.548Z,100245.44
2022-10-24T10:37:36.044Z,100250.34
2022-10-24T10:40:21.334Z,100230.81
2022-10-24T10:43:06.142Z,100220.00
2022-10-24T10:46:08.589Z,100207.75
2022-10-24T10:49:20.961Z,100217.63
2022-10-24T10:51:58.171Z,100209.59
2022-10-24T10:54:47.647Z,100199.78
2022-10-24T10:57:22.072Z,100195.34
2022-10-24T11:00:13.285Z,100212.28
2022-10-24T11:03:18.384Z,100194.94
2022-10-24T11:06:23.066Z,100212.09
2022-10-24T11:09:34.009Z,100220.13
2022-10-24T11:12:26.673Z,100212.06
2022-10-24T11:15:15.649Z,100174.13
2022-10-24T11:17:55.117Z,100200.19
2022-10-24T11:20:37.887Z,100161.06
2022-10-24T11:23:30.067Z,100173.59
2022-10-24T11:26:15.413Z,100156.66
2022-10-24T11:29:25.240Z,100139.91
2022-10-24T11:32:21.233Z,100138.75
2022-10-24T11:34:57.215Z,100141.72
2022-10-24T11:37:32.275Z,100104.69
2022-10-24T11:40:19.000Z,100133.47
2022-10-24T11:42:58.697Z,100092.38
2022-10-24T11:45:42.367Z,100121.97
2022-10-24T11:48:45.336Z,100093.59
2022-10-24T11:51:34.629Z,100094.22
2022-10-24T11:54:23.964Z,100095.47
2022-10-24T11:57:15.971Z,100134.25
2022-10-24T11:59:43.935Z,100093.34
2022-10-24T12:02:53.426Z,100064.53
2022-10-24T12:05:45.074Z,100107.72
2022-10-24T12:08:29.007Z,100089.88
2022-10-24T12:11:34.221Z,100052.63
2022-10-24T12:14:19.107Z,100044.97
2022-10-24T12:17:38.349Z,100041.34
2022-10-24T12:20:13.830Z,100028.84
2022-10-24T12:22:44.511Z,100045.72
2022-10-24T12:25:21.838Z,100056.13
2022-10-24T12:28:21.274Z,100043.50
2022-10-24T12:31:15.367Z,100025.28
2022-10-24T12:33:46.037Z,100047.72
2022-10-24T12:36:14.594Z,100022.13
2022-10-24T12:38:42.827Z,100027.16
2022-10-24T12:41:32.254Z,100023.09
2022-10-24T12:44:35.350Z,100021.44
2022-10-24T12:47:36.445Z,99987.25
2022-10-24T12:50:30.323Z,99987.47
2022-10-24T12:53:17.673Z,99992.50
2022-10-24T12:55:51.645Z,100010.28
2022-10-24T12:58:35.258Z,99986.97
2022-10-24T13:01:13.244Z,100009.56
2022-10-24T13:03:44.252Z,99977.84
2022-10-24T13:06:33.612Z,99967.81
2022-10-24T13:09:31.923Z,99903.41
2022-10-24T13:12:29.953Z,99873.50
2022-10-24T13:15:25.393Z,99885.72
2022-10-24T13:18:40.025Z,99912.41
2022-10-24T13:21:16.472Z,99915.53
2022-10-24T13:23:47.476Z,99898.50
2022-10-24T13:26:47.459Z,99873.06
2022-10-24T13:29:24.708Z,99875.19
2022-10-24T13:32:16.136Z,99879.63
2022-10-24T13:34:52.559Z,99855.53
2022-10-24T13:37:31.610Z,99835.94
2022-10-24T13:40:19.557Z,99851.34
2022-10-24T13:42:57.241Z,99858.50
2022-10-24T13:45:33.087Z,99869.19
2022-10-24T13:48:18.982Z,99870.94
2022-10-24T13:51:18.466Z,99872.09
2022-10-24T13:54:02.352Z,99865.38
2022-10-24T13:56:37.473Z,99881.31
2022-10-24T13:59:07.662Z,99876.22
2022-10-24T14:04:08.443Z,99921.50
2022-10-24T14:06:36.281Z,99918.06
2022-10-24T14:09:11.809Z,99907.53
2022-10-24T14:11:47.853Z,99900.53
2022-10-24T14:14:36.240Z,99889.53
2022-10-24T14:17:33.744Z,99896.63
2022-10-24T14:20:10.702Z,99876.94
2022-10-24T14:22:41.223Z,99851.13
2022-10-24T14:25:36.413Z,99797.94
2022-10-24T14:28:16.566Z,99815.09
2022-10-24T14:31:30.996Z,99819.72
2022-10-24T14:33:59.064Z,99807.75
2022-10-24T14:36:32.887Z,99815.41
2022-10-24T14:39:04.885Z,99821.88
2022-10-24T14:41:40.969Z,99838.31
2022-10-24T14:44:15.240Z,99841.16
2022-10-24T14:46:46.718Z,99846.56
2022-10-24T14:49:27.361Z,99819.16
2022-10-24T14:51:59.115Z,99806.34
2022-10-24T14:54:33.194Z,99801.34
2022-10-24T14:57:04.516Z,99810.47
2022-10-24T14:59:38.029Z,99839.88
2022-10-24T15:02:20.739Z,99864.91
2022-10-24T15:04:51.867Z,99843.09
2022-10-24T15:07:22.634Z,99821.22
2022-10-24T15:09:59.524Z,99827.34
2022-10-24T15:12:42.737Z,99809.88
2022-10-24T15:15:33.230Z,99789.63
2022-10-24T15:18:21.014Z,99783.38
2022-10-24T15:20:52.466Z,99781.97
2022-10-24T15:23:31.802Z,99780.66
2022-10-24T15:26:21.737Z,99787.88
2022-10-24T15:29:03.165Z,99767.13
2022-10-24T15:31:35.161Z,99774.78
2022-10-24T15:34:04.129Z,99782.19
2022-10-24T15:36:42.426Z,99783.44
2022-10-24T15:39:10.213Z,99792.72
2022-10-24T15:41:40.109Z,99814.81
2022-10-24T15:44:29.437Z,99809.91
2022-10-24T15:46:58.215Z,99805.50
2022-10-24T15:49:27.073Z,99816.16
2022-10-24T15:51:55.051Z,99825.25
2022-10-24T15:54:23.518Z,99819.19
2022-10-24T15:56:52.262Z,99833.50
2022-10-24T15:59:20.546Z,99833.63
2022-10-24T16:01:56.535Z,99840.84
2022-10-24T16:04:25.085Z,99841.00
2022-10-24T16:06:53.250Z,99856.22
2022-10-24T16:09:27.154Z,99859.03
2022-10-24T16:11:55.699Z,99857.63
2022-10-24T16:14:27.010Z,99865.56
2022-10-24T16:16:57.835Z,99861.53
2022-10-24T16:19:27.297Z,99866.84
2022-10-24T16:21:59.669Z,99867.03
2022-10-24T16:24:29.132Z,99868.13
2022-10-24T16:26:57.472Z,99871.03
2022-10-24T16:29:25.374Z,99872.94
2022-10-24T16:31:53.226Z,99868.75
2022-10-24T16:34:21.099Z,99866.25
2022-10-24T16:36:53.433Z,99864.63
2022-10-24T16:39:21.727Z,99869.94
2022-10-24T16:41:54.556Z,99874.63
2022-10-24T16:44:22.399Z,99878.56
2022-10-24T16:46:54.216Z,99884.06
2022-10-24T16:49:22.173Z,99870.31
2022-10-24T16:51:50.123Z,99882.78
2022-10-24T16:54:19.493Z,99892.44
2022-10-24T16:56:53.348Z,99880.34
2022-10-24T16:59:21.916Z,99894.50
2022-10-24T17:01:50.346Z,99886.84
2022-10-24T17:04:18.347Z,99890.59
2022-10-24T17:06:46.217Z,99883.53
2022-10-24T17:09:14.078Z,99896.56
2022-10-24T17:11:46.331Z,99899.44
2022-10-24T17:14:14.959Z,99898.81
2022-10-24T17:16:45.030Z,99907.09
2022-10-24T17:19:17.435Z,99917.88
2022-10-24T17:21:48.878Z,99925.94
2022-10-24T17:24:24.628Z,99940.31
2022-10-24T17:26:53.544Z,99936.84
2022-10-24T17:29:34.432Z,99946.69
2022-10-24T17:32:02.492Z,99953.84
2022-10-24T17:34:30.687Z,99960.06
2022-10-24T17:37:21.063Z,99956.50
2022-10-24T17:39:52.821Z,99951.38
2022-10-24T17:42:21.381Z,99961.34
2022-10-24T17:44:49.504Z,99960.53
2022-10-24T17:47:17.605Z,99964.34
2022-10-24T17:49:45.607Z,99974.31
2022-10-24T17:52:21.538Z,99984.94
2022-10-24T17:54:50.034Z,99979.72
2022-10-24T17:57:17.865Z,99994.06
2022-10-24T17:59:46.113Z,99987.34
2022-10-24T18:02:14.690Z,99996.22
2022-10-24T18:04:44.755Z,100011.47
2022-10-24T18:07:12.865Z,100022.19
2022-10-24T18:09:40.966Z,100036.28
2022-10-24T18:12:09.909Z,100037.19
2022-10-24T18:14:37.838Z,100042.53
2022-10-24T18:17:05.706Z,100035.56
2022-10-24T18:19:33.769Z,100026.88
2022-10-24T18:22:01.706Z,100031.53
2022-10-24T18:24:31.575Z,100035.22
2022-10-24T18:26:59.451Z,100039.81
2022-10-24T18:29:27.331Z,100052.31
2022-10-24T18:31:55.167Z,100059.34
2022-10-24T18:34:23.089Z,100054.16
2022-10-24T18:36:50.994Z,100067.47
2022-10-24T18:39:19.505Z,100079.88
2022-10-24T18:42:03.773Z,100081.53
2022-10-24T18:44:34.878Z,100066.44
2022-10-24T18:47:07.381Z,100083.19
2022-10-24T18:49:36.199Z,100086.72
2022-10-24T18:52:09.795Z,100099.91
2022-10-24T18:55:04.032Z,100102.59
2022-10-24T18:57:34.654Z,100107.94
2022-10-24T19:00:05.177Z,100108.00
2022-10-24T19:02:49.107Z,100123.97
2022-10-24T19:05:24.876Z,100139.09
2022-10-24T19:07:53.389Z,100140.00
2022-10-24T19:10:27.326Z,100143.69
2022-10-24T19:12:57.297Z,100149.06
2022-10-24T19:15:25.653Z,100147.34
2022-10-24T19:17:53.824Z,100139.44
2022-10-24T19:20:24.118Z,100127.97
2022-10-24T19:22:52.048Z,100119.22
2022-10-24T19:25:20.397Z,100118.38
2022-10-24T19:27:49.454Z,100104.28
2022-10-24T19:30:17.752Z,100094.56
2022-10-24T19:32:45.752Z,100083.13
2022-10-24T19:35:14.133Z,100076.06
2022-10-24T19:37:42.053Z,100060.19
2022-10-24T19:40:11.010Z,100048.69
2022-10-24T19:42:38.822Z,100047.81
2022-10-24T19:45:07.711Z,100069.09
2022-10-24T19:47:35.914Z,100063.84
2022-10-24T19:50:03.711Z,100074.53
2022-10-24T19:52:31.668Z,100081.66
2022-10-24T19:55:00.209Z,100079.00
2022-10-24T19:57:28.659Z,100079.97
2022-10-24T19:59:56.383Z,100087.94
2022-10-24T20:02:27.690Z,100096.88
2022-10-24T20:04:55.728Z,100101.34
2022-10-24T20:07:23.614Z,100092.59
2022-10-24T20:09:51.446Z,100109.44
2022-10-24T20:12:19.377Z,100111.28
2022-10-24T20:14:47.163Z,100125.47
2022-10-24T20:17:15.214Z,100118.44
2022-10-24T20:19:43.278Z,100127.31
2022-10-24T20:22:11.100Z,100131.81
2022-10-24T20:24:39.058Z,100155.69
2022-10-24T20:27:07.713Z,100164.56
2022-10-24T20:29:49.673Z,100157.56
2022-10-24T20:32:17.515Z,100171.78
2022-10-24T20:34:45.310Z,100180.59
2022-10-24T20:37:13.178Z,100183.28
2022-10-24T20:39:41.016Z,100185.13
2022-10-24T20:42:08.989Z,100199.28
2022-10-24T20:44:36.835Z,100210.75
2022-10-24T20:47:05.286Z,100219.63
2022-10-24T20:49:34.073Z,100229.34
2022-10-24T20:52:02.217Z,100231.16
2022-10-24T20:54:30.152Z,100252.38
2022-10-24T20:56:58.061Z,100254.16
2022-10-24T20:59:25.832Z,100246.19
2022-10-24T21:01:53.868Z,100255.06
2022-10-24T21:04:21.765Z,100258.59
2022-10-24T21:06:49.598Z,100261.28
2022-10-24T21:09:17.444Z,100273.63
2022-10-24T21:11:45.388Z,100263.94
2022-10-24T21:14:14.979Z,100289.56
2022-10-24T21:16:42.849Z,100272.78
2022-10-24T21:19:10.629Z,100277.22
2022-10-24T21:21:39.047Z,100276.34
2022-10-24T21:24:07.673Z,100289.59
2022-10-24T21:26:38.621Z,100294.03
2022-10-24T21:29:15.043Z,100300.22
2022-10-24T21:31:56.213Z,100306.41
2022-10-24T21:34:24.050Z,100305.53
2022-10-24T21:36:51.857Z,100307.28
2022-10-24T21:39:19.635Z,100314.38
2022-10-24T21:41:47.446Z,100329.41
2022-10-24T21:44:15.382Z,100325.88
2022-10-24T21:46:43.456Z,100324.97
2022-10-24T21:49:11.402Z,100336.47
2022-10-24T21:51:41.364Z,100340.91
2022-10-24T21:54:24.346Z,100342.66
2022-10-24T21:56:52.307Z,100346.19
2022-10-24T21:59:21.445Z,100361.22
2022-10-24T22:01:51.699Z,100362.09
2022-10-24T22:04:20.433Z,100373.59
2022-10-24T22:06:48.498Z,100380.66
2022-10-24T22:09:20.720Z,100380.66
2022-10-24T22:11:50.195Z,100391.28
2022-10-24T22:14:18.785Z,100393.03
2022-10-24T22:16:47.467Z,100396.56
2022-10-24T22:19:15.725Z,100396.56
2022-10-24T22:21:50.589Z,100398.34
2022-10-24T22:24:22.077Z,100409.81
2022-10-24T22:26:51.308Z,100402.72
2022-10-24T22:29:22.639Z,100408.91
2022-10-24T22:31:52.353Z,100405.38
2022-10-24T22:34:25.412Z,100413.31
2022-10-24T22:37:25.194Z,100415.06
2022-10-24T22:39:56.552Z,100400.91
2022-10-24T22:42:25.955Z,100407.97
2022-10-24T22:44:54.292Z,100415.91
2022-10-24T22:47:31.065Z,100412.38
2022-10-24T22:50:27.858Z,100412.34
2022-10-24T22:52:56.049Z,100414.94
2022-10-24T22:55:34.492Z,100414.06
2022-10-24T22:58:02.701Z,100424.66
2022-10-24T23:00:31.281Z,100422.84
2022-10-24T23:03:29.578Z,100434.38
2022-10-24T23:06:06.992Z,100418.41
2022-10-24T23:08:40.862Z,100433.50
2022-10-24T23:11:13.153Z,100433.44
2022-10-24T23:13:42.767Z,100450.25
2022-10-24T23:16:27.733Z,100446.72
2022-10-24T23:18:55.975Z,100456.41
2022-10-24T23:22:00.924Z,100449.28
2022-10-24T23:24:29.101Z,100444.88
2022-10-24T23:27:17.372Z,100459.03
2022-10-24T23:29:47.050Z,100452.84
2022-10-24T23:32:26.945Z,100454.56
2022-10-24T23:34:56.517Z,100457.22
2022-10-24T23:37:40.746Z,100451.03
2022-10-24T23:40:17.650Z,100449.25
2022-10-24T23:42:47.216Z,100454.53
2022-10-24T23:45:22.645Z,100454.56
2022-10-24T23:48:17.438Z,100442.22
2022-10-24T23:51:15.668Z,100438.69
2022-10-24T23:53:51.317Z,100439.56
2022-10-24T23:56:22.692Z,100436.03
2022-10-24T23:58:51.571Z,100436.91
